Terminal Aerodrome Forecast
Issued by NWS Tallahassee, FL

Home | Current Version | Previous Version | Text Only | Print | Product List | Glossary On
Versions: 1 2 3 4 5 6 7 8 9 10 11 12 13 14 15
000
FTUS42 KTAE 250500
TAFTLH
TAF
KTLH 250520Z 2506/2606 00000KT P6SM SKC
     FM251400 25005KT P6SM SCT050 SCT250
     FM251700 21008KT P6SM VCTS BKN050CB BKN250
     FM260000 22006KT P6SM SCT050 BKN250=

USA.gov is the U.S. government's official web portal to all federal, state and local government web resources and services.